sensor_id;sensor_type;location;lat;lon;timestamp;P1;durP1;ratioP1;P2;durP2;ratioP2
17761;SDS011;9005;48.838;10.112;2023-12-07T00:02:10;4.93;;;3.60;;
17761;SDS011;9005;48.838;10.112;2023-12-07T00:04:37;3.88;;;3.50;;
17761;SDS011;9005;48.838;10.112;2023-12-07T00:07:05;6.22;;;3.72;;
17761;SDS011;9005;48.838;10.112;2023-12-07T00:09:32;4.15;;;3.50;;
17761;SDS011;9005;48.838;10.112;2023-12-07T00:11:59;4.57;;;3.60;;
17761;SDS011;9005;48.838;10.112;2023-12-07T00:14:25;4.68;;;3.83;;
17761;SDS011;9005;48.838;10.112;2023-12-07T00:16:52;4.72;;;4.07;;
17761;SDS011;9005;48.838;10.112;2023-12-07T00:19:19;4.35;;;3.50;;
17761;SDS011;9005;48.838;10.112;2023-12-07T00:21:46;6.95;;;5.32;;
17761;SDS011;9005;48.838;10.112;2023-12-07T00:24:14;5.63;;;4.53;;
17761;SDS011;9005;48.838;10.112;2023-12-07T00:26:40;5.28;;;4.32;;
17761;SDS011;9005;48.838;10.112;2023-12-07T00:29:07;4.10;;;3.58;;
17761;SDS011;9005;48.838;10.112;2023-12-07T00:31:34;6.80;;;4.38;;
17761;SDS011;9005;48.838;10.112;2023-12-07T00:34:01;3.95;;;3.42;;
17761;SDS011;9005;48.838;10.112;2023-12-07T00:36:27;6.75;;;4.78;;
17761;SDS011;9005;48.838;10.112;2023-12-07T00:38:54;4.95;;;3.67;;
17761;SDS011;9005;48.838;10.112;2023-12-07T00:41:23;5.47;;;4.00;;
17761;SDS011;9005;48.838;10.112;2023-12-07T00:43:49;4.57;;;3.72;;
17761;SDS011;9005;48.838;10.112;2023-12-07T00:46:16;4.55;;;3.70;;
17761;SDS011;9005;48.838;10.112;2023-12-07T00:48:43;4.75;;;4.03;;
17761;SDS011;9005;48.838;10.112;2023-12-07T00:51:09;4.47;;;3.65;;
17761;SDS011;9005;48.838;10.112;2023-12-07T00:53:36;4.88;;;3.28;;
17761;SDS011;9005;48.838;10.112;2023-12-07T00:56:03;4.00;;;3.10;;
17761;SDS011;9005;48.838;10.112;2023-12-07T00:58:32;4.22;;;3.60;;
17761;SDS011;9005;48.838;10.112;2023-12-07T01:00:58;4.10;;;2.92;;
17761;SDS011;9005;48.838;10.112;2023-12-07T01:03:26;4.13;;;3.17;;
17761;SDS011;9005;48.838;10.112;2023-12-07T01:05:52;3.40;;;3.05;;
17761;SDS011;9005;48.838;10.112;2023-12-07T01:08:19;4.45;;;3.55;;
17761;SDS011;9005;48.838;10.112;2023-12-07T01:10:46;3.55;;;3.03;;
17761;SDS011;9005;48.838;10.112;2023-12-07T01:13:13;4.38;;;3.42;;
17761;SDS011;9005;48.838;10.112;2023-12-07T01:15:41;4.38;;;3.22;;
17761;SDS011;9005;48.838;10.112;2023-12-07T01:18:08;6.45;;;3.65;;
17761;SDS011;9005;48.838;10.112;2023-12-07T01:20:35;4.03;;;2.97;;
17761;SDS011;9005;48.838;10.112;2023-12-07T01:23:01;3.10;;;2.65;;
17761;SDS011;9005;48.838;10.112;2023-12-07T01:25:28;4.40;;;3.17;;
17761;SDS011;9005;48.838;10.112;2023-12-07T01:27:56;2.83;;;2.55;;
17761;SDS011;9005;48.838;10.112;2023-12-07T01:30:23;3.83;;;2.80;;
17761;SDS011;9005;48.838;10.112;2023-12-07T01:32:51;3.38;;;2.70;;
17761;SDS011;9005;48.838;10.112;2023-12-07T01:35:18;2.83;;;2.58;;
17761;SDS011;9005;48.838;10.112;2023-12-07T01:37:44;3.25;;;2.35;;
17761;SDS011;9005;48.838;10.112;2023-12-07T01:40:11;5.07;;;2.75;;
17761;SDS011;9005;48.838;10.112;2023-12-07T01:42:40;3.88;;;3.17;;
17761;SDS011;9005;48.838;10.112;2023-12-07T01:45:07;5.90;;;2.95;;
17761;SDS011;9005;48.838;10.112;2023-12-07T01:47:35;2.95;;;2.42;;
17761;SDS011;9005;48.838;10.112;2023-12-07T01:50:04;3.60;;;2.75;;
17761;SDS011;9005;48.838;10.112;2023-12-07T01:52:31;5.00;;;3.40;;
17761;SDS011;9005;48.838;10.112;2023-12-07T01:55:01;2.63;;;2.42;;
17761;SDS011;9005;48.838;10.112;2023-12-07T01:57:29;3.42;;;2.55;;
17761;SDS011;9005;48.838;10.112;2023-12-07T01:59:55;2.25;;;2.05;;
17761;SDS011;9005;48.838;10.112;2023-12-07T02:02:22;2.90;;;2.20;;
17761;SDS011;9005;48.838;10.112;2023-12-07T02:04:49;3.15;;;2.65;;
17761;SDS011;9005;48.838;10.112;2023-12-07T02:07:17;3.42;;;2.65;;
17761;SDS011;9005;48.838;10.112;2023-12-07T02:09:44;2.80;;;2.50;;
17761;SDS011;9005;48.838;10.112;2023-12-07T02:12:11;3.35;;;2.90;;
17761;SDS011;9005;48.838;10.112;2023-12-07T02:14:38;2.72;;;2.50;;
17761;SDS011;9005;48.838;10.112;2023-12-07T02:17:08;3.10;;;2.80;;
17761;SDS011;9005;48.838;10.112;2023-12-07T02:19:47;5.32;;;3.78;;
17761;SDS011;9005;48.838;10.112;2023-12-07T02:22:21;3.25;;;2.60;;
17761;SDS011;9005;48.838;10.112;2023-12-07T02:24:55;3.38;;;2.50;;
17761;SDS011;9005;48.838;10.112;2023-12-07T02:27:37;2.90;;;2.53;;
17761;SDS011;9005;48.838;10.112;2023-12-07T02:30:06;3.22;;;2.65;;
17761;SDS011;9005;48.838;10.112;2023-12-07T02:32:33;2.88;;;2.42;;
17761;SDS011;9005;48.838;10.112;2023-12-07T02:35:01;3.45;;;2.53;;
17761;SDS011;9005;48.838;10.112;2023-12-07T02:37:28;2.88;;;2.33;;
17761;SDS011;9005;48.838;10.112;2023-12-07T02:40:00;2.97;;;2.53;;
17761;SDS011;9005;48.838;10.112;2023-12-07T02:42:29;4.22;;;2.83;;
17761;SDS011;9005;48.838;10.112;2023-12-07T02:44:59;2.63;;;2.40;;
17761;SDS011;9005;48.838;10.112;2023-12-07T02:47:26;2.88;;;2.40;;
17761;SDS011;9005;48.838;10.112;2023-12-07T02:49:53;3.90;;;3.35;;
17761;SDS011;9005;48.838;10.112;2023-12-07T02:52:20;3.72;;;2.60;;
17761;SDS011;9005;48.838;10.112;2023-12-07T02:54:46;3.65;;;2.42;;
17761;SDS011;9005;48.838;10.112;2023-12-07T02:57:13;5.30;;;3.03;;
17761;SDS011;9005;48.838;10.112;2023-12-07T02:59:40;2.55;;;2.15;;
17761;SDS011;9005;48.838;10.112;2023-12-07T03:02:08;3.08;;;2.58;;
17761;SDS011;9005;48.838;10.112;2023-12-07T03:04:35;3.95;;;2.60;;
17761;SDS011;9005;48.838;10.112;2023-12-07T03:07:02;3.30;;;2.72;;
17761;SDS011;9005;48.838;10.112;2023-12-07T03:09:29;3.95;;;2.60;;
17761;SDS011;9005;48.838;10.112;2023-12-07T03:11:55;3.83;;;2.80;;
17761;SDS011;9005;48.838;10.112;2023-12-07T03:14:22;3.38;;;2.40;;
17761;SDS011;9005;48.838;10.112;2023-12-07T03:16:49;2.35;;;2.15;;
17761;SDS011;9005;48.838;10.112;2023-12-07T03:19:17;2.55;;;2.35;;
17761;SDS011;9005;48.838;10.112;2023-12-07T03:21:44;3.05;;;2.63;;
17761;SDS011;9005;48.838;10.112;2023-12-07T03:24:10;3.08;;;2.53;;
17761;SDS011;9005;48.838;10.112;2023-12-07T03:26:37;2.95;;;2.30;;
17761;SDS011;9005;48.838;10.112;2023-12-07T03:29:04;2.63;;;2.42;;
17761;SDS011;9005;48.838;10.112;2023-12-07T03:31:31;2.67;;;2.40;;
17761;SDS011;9005;48.838;10.112;2023-12-07T03:33:57;5.60;;;2.25;;
17761;SDS011;9005;48.838;10.112;2023-12-07T03:36:27;3.80;;;2.50;;
17761;SDS011;9005;48.838;10.112;2023-12-07T03:38:54;2.83;;;2.53;;
17761;SDS011;9005;48.838;10.112;2023-12-07T03:41:21;2.42;;;2.22;;
17761;SDS011;9005;48.838;10.112;2023-12-07T03:43:47;2.45;;;2.20;;
17761;SDS011;9005;48.838;10.112;2023-12-07T03:46:14;3.15;;;2.30;;
17761;SDS011;9005;48.838;10.112;2023-12-07T03:48:41;2.72;;;2.47;;
17761;SDS011;9005;48.838;10.112;2023-12-07T03:51:07;3.17;;;2.67;;
17761;SDS011;9005;48.838;10.112;2023-12-07T03:53:35;2.95;;;2.42;;
17761;SDS011;9005;48.838;10.112;2023-12-07T03:56:02;2.90;;;2.60;;
17761;SDS011;9005;48.838;10.112;2023-12-07T03:58:29;6.70;;;2.85;;
17761;SDS011;9005;48.838;10.112;2023-12-07T04:00:56;2.80;;;2.47;;
17761;SDS011;9005;48.838;10.112;2023-12-07T04:03:23;3.72;;;2.63;;
17761;SDS011;9005;48.838;10.112;2023-12-07T04:05:49;3.92;;;2.72;;
17761;SDS011;9005;48.838;10.112;2023-12-07T04:08:17;3.05;;;2.50;;
17761;SDS011;9005;48.838;10.112;2023-12-07T04:10:45;3.35;;;2.65;;
17761;SDS011;9005;48.838;10.112;2023-12-07T04:13:11;2.78;;;2.53;;
17761;SDS011;9005;48.838;10.112;2023-12-07T04:15:38;3.72;;;2.80;;
17761;SDS011;9005;48.838;10.112;2023-12-07T04:18:05;3.20;;;2.83;;
17761;SDS011;9005;48.838;10.112;2023-12-07T04:20:31;4.07;;;2.50;;
17761;SDS011;9005;48.838;10.112;2023-12-07T04:22:58;2.78;;;2.40;;
17761;SDS011;9005;48.838;10.112;2023-12-07T04:25:25;3.15;;;2.72;;
17761;SDS011;9005;48.838;10.112;2023-12-07T04:27:53;5.38;;;2.92;;
17761;SDS011;9005;48.838;10.112;2023-12-07T04:30:19;4.03;;;2.85;;
17761;SDS011;9005;48.838;10.112;2023-12-07T04:32:46;3.17;;;2.50;;
17761;SDS011;9005;48.838;10.112;2023-12-07T04:35:13;3.15;;;2.53;;
17761;SDS011;9005;48.838;10.112;2023-12-07T04:37:40;2.80;;;2.50;;
17761;SDS011;9005;48.838;10.112;2023-12-07T04:40:07;3.92;;;2.72;;
17761;SDS011;9005;48.838;10.112;2023-12-07T04:42:35;3.53;;;2.65;;
17761;SDS011;9005;48.838;10.112;2023-12-07T04:45:04;4.22;;;3.20;;
17761;SDS011;9005;48.838;10.112;2023-12-07T04:47:31;3.65;;;2.70;;
17761;SDS011;9005;48.838;10.112;2023-12-07T04:49:58;3.63;;;3.08;;
17761;SDS011;9005;48.838;10.112;2023-12-07T04:52:25;3.15;;;2.85;;
17761;SDS011;9005;48.838;10.112;2023-12-07T04:54:52;3.85;;;2.95;;
17761;SDS011;9005;48.838;10.112;2023-12-07T04:57:18;4.43;;;3.30;;
17761;SDS011;9005;48.838;10.112;2023-12-07T04:59:45;3.05;;;2.55;;
17761;SDS011;9005;48.838;10.112;2023-12-07T05:02:13;4.85;;;2.72;;
17761;SDS011;9005;48.838;10.112;2023-12-07T05:04:40;4.13;;;2.90;;
17761;SDS011;9005;48.838;10.112;2023-12-07T05:07:07;3.22;;;2.70;;
17761;SDS011;9005;48.838;10.112;2023-12-07T05:09:33;3.67;;;3.10;;
17761;SDS011;9005;48.838;10.112;2023-12-07T05:12:00;3.00;;;2.67;;
17761;SDS011;9005;48.838;10.112;2023-12-07T05:14:27;4.30;;;3.00;;
17761;SDS011;9005;48.838;10.112;2023-12-07T05:16:54;5.28;;;3.10;;
17761;SDS011;9005;48.838;10.112;2023-12-07T05:19:22;4.43;;;3.20;;
17761;SDS011;9005;48.838;10.112;2023-12-07T05:21:49;2.95;;;2.72;;
17761;SDS011;9005;48.838;10.112;2023-12-07T05:24:16;2.97;;;2.67;;
17761;SDS011;9005;48.838;10.112;2023-12-07T05:26:43;3.53;;;3.17;;
17761;SDS011;9005;48.838;10.112;2023-12-07T05:29:11;3.38;;;3.08;;
17761;SDS011;9005;48.838;10.112;2023-12-07T05:31:38;3.35;;;2.80;;
17761;SDS011;9005;48.838;10.112;2023-12-07T05:34:04;2.72;;;2.53;;
17761;SDS011;9005;48.838;10.112;2023-12-07T05:36:33;3.63;;;2.60;;
17761;SDS011;9005;48.838;10.112;2023-12-07T05:38:59;3.03;;;2.72;;
17761;SDS011;9005;48.838;10.112;2023-12-07T05:41:25;2.90;;;2.60;;
17761;SDS011;9005;48.838;10.112;2023-12-07T05:43:52;3.58;;;2.50;;
17761;SDS011;9005;48.838;10.112;2023-12-07T05:46:19;2.92;;;2.60;;
17761;SDS011;9005;48.838;10.112;2023-12-07T05:48:46;3.08;;;2.65;;
17761;SDS011;9005;48.838;10.112;2023-12-07T05:51:13;4.85;;;2.95;;
17761;SDS011;9005;48.838;10.112;2023-12-07T05:53:41;3.28;;;2.63;;
17761;SDS011;9005;48.838;10.112;2023-12-07T05:56:09;5.78;;;2.70;;
17761;SDS011;9005;48.838;10.112;2023-12-07T05:58:36;3.58;;;2.90;;
17761;SDS011;9005;48.838;10.112;2023-12-07T06:01:03;2.72;;;2.42;;
17761;SDS011;9005;48.838;10.112;2023-12-07T06:03:30;3.38;;;3.00;;
17761;SDS011;9005;48.838;10.112;2023-12-07T06:05:57;3.58;;;2.85;;
17761;SDS011;9005;48.838;10.112;2023-12-07T06:08:24;2.92;;;2.30;;
17761;SDS011;9005;48.838;10.112;2023-12-07T06:10:52;3.45;;;2.75;;
17761;SDS011;9005;48.838;10.112;2023-12-07T06:13:19;3.10;;;2.35;;
17761;SDS011;9005;48.838;10.112;2023-12-07T06:15:45;3.35;;;2.75;;
17761;SDS011;9005;48.838;10.112;2023-12-07T06:18:12;3.10;;;2.70;;
17761;SDS011;9005;48.838;10.112;2023-12-07T06:20:39;3.85;;;2.85;;
17761;SDS011;9005;48.838;10.112;2023-12-07T06:23:06;3.55;;;2.72;;
17761;SDS011;9005;48.838;10.112;2023-12-07T06:25:37;4.20;;;3.38;;
17761;SDS011;9005;48.838;10.112;2023-12-07T06:28:05;3.28;;;2.75;;
17761;SDS011;9005;48.838;10.112;2023-12-07T06:30:32;4.72;;;3.28;;
17761;SDS011;9005;48.838;10.112;2023-12-07T06:32:59;4.22;;;3.10;;
17761;SDS011;9005;48.838;10.112;2023-12-07T06:35:26;3.58;;;2.80;;
17761;SDS011;9005;48.838;10.112;2023-12-07T06:37:53;2.83;;;2.53;;
17761;SDS011;9005;48.838;10.112;2023-12-07T06:40:20;4.05;;;2.70;;
17761;SDS011;9005;48.838;10.112;2023-12-07T06:42:47;2.88;;;2.15;;
17761;SDS011;9005;48.838;10.112;2023-12-07T06:45:15;2.38;;;2.17;;
17761;SDS011;9005;48.838;10.112;2023-12-07T06:47:42;3.05;;;2.35;;
17761;SDS011;9005;48.838;10.112;2023-12-07T06:50:09;3.72;;;1.92;;
17761;SDS011;9005;48.838;10.112;2023-12-07T06:52:36;5.10;;;2.67;;
17761;SDS011;9005;48.838;10.112;2023-12-07T06:55:04;2.92;;;2.20;;
17761;SDS011;9005;48.838;10.112;2023-12-07T06:57:31;2.70;;;2.38;;
17761;SDS011;9005;48.838;10.112;2023-12-07T06:59:58;3.83;;;1.90;;
17761;SDS011;9005;48.838;10.112;2023-12-07T07:02:27;4.82;;;3.17;;
17761;SDS011;9005;48.838;10.112;2023-12-07T07:04:54;3.08;;;2.20;;
17761;SDS011;9005;48.838;10.112;2023-12-07T07:07:21;3.20;;;2.40;;
17761;SDS011;9005;48.838;10.112;2023-12-07T07:09:47;3.42;;;2.42;;
17761;SDS011;9005;48.838;10.112;2023-12-07T07:12:14;3.40;;;2.40;;
17761;SDS011;9005;48.838;10.112;2023-12-07T07:14:41;3.85;;;2.30;;
17761;SDS011;9005;48.838;10.112;2023-12-07T07:17:08;2.97;;;2.45;;
17761;SDS011;9005;48.838;10.112;2023-12-07T07:19:36;3.20;;;2.83;;
17761;SDS011;9005;48.838;10.112;2023-12-07T07:22:03;2.60;;;2.33;;
17761;SDS011;9005;48.838;10.112;2023-12-07T07:24:30;3.75;;;2.60;;
17761;SDS011;9005;48.838;10.112;2023-12-07T07:26:57;3.97;;;2.20;;
17761;SDS011;9005;48.838;10.112;2023-12-07T07:29:24;4.25;;;2.20;;
17761;SDS011;9005;48.838;10.112;2023-12-07T07:31:51;2.20;;;2.00;;
17761;SDS011;9005;48.838;10.112;2023-12-07T07:34:17;3.25;;;2.70;;
17761;SDS011;9005;48.838;10.112;2023-12-07T07:36:45;2.97;;;2.65;;
17761;SDS011;9005;48.838;10.112;2023-12-07T07:39:12;3.55;;;2.25;;
17761;SDS011;9005;48.838;10.112;2023-12-07T07:41:39;3.15;;;2.13;;
17761;SDS011;9005;48.838;10.112;2023-12-07T07:44:06;2.80;;;2.22;;
17761;SDS011;9005;48.838;10.112;2023-12-07T07:46:32;3.13;;;2.55;;
17761;SDS011;9005;48.838;10.112;2023-12-07T07:48:59;3.30;;;2.97;;
17761;SDS011;9005;48.838;10.112;2023-12-07T07:51:28;2.65;;;2.00;;
17761;SDS011;9005;48.838;10.112;2023-12-07T07:53:58;6.15;;;3.22;;
17761;SDS011;9005;48.838;10.112;2023-12-07T07:56:25;3.50;;;2.47;;
17761;SDS011;9005;48.838;10.112;2023-12-07T07:58:51;3.58;;;2.90;;
17761;SDS011;9005;48.838;10.112;2023-12-07T08:01:18;2.80;;;2.50;;
17761;SDS011;9005;48.838;10.112;2023-12-07T08:03:45;3.63;;;2.78;;
17761;SDS011;9005;48.838;10.112;2023-12-07T08:06:11;2.60;;;2.40;;
17761;SDS011;9005;48.838;10.112;2023-12-07T08:08:38;3.28;;;2.40;;
17761;SDS011;9005;48.838;10.112;2023-12-07T08:11:06;3.63;;;2.65;;
17761;SDS011;9005;48.838;10.112;2023-12-07T08:13:33;4.60;;;3.08;;
17761;SDS011;9005;48.838;10.112;2023-12-07T08:16:00;3.97;;;2.65;;
17761;SDS011;9005;48.838;10.112;2023-12-07T08:18:27;3.92;;;3.00;;
17761;SDS011;9005;48.838;10.112;2023-12-07T08:20:53;4.35;;;3.22;;
17761;SDS011;9005;48.838;10.112;2023-12-07T08:23:20;4.50;;;3.28;;
17761;SDS011;9005;48.838;10.112;2023-12-07T08:25:47;4.07;;;3.65;;
17761;SDS011;9005;48.838;10.112;2023-12-07T08:28:15;4.07;;;3.67;;
17761;SDS011;9005;48.838;10.112;2023-12-07T08:30:42;4.85;;;3.70;;
17761;SDS011;9005;48.838;10.112;2023-12-07T08:33:09;4.28;;;3.88;;
17761;SDS011;9005;48.838;10.112;2023-12-07T08:35:36;4.68;;;4.22;;
17761;SDS011;9005;48.838;10.112;2023-12-07T08:38:03;4.50;;;4.10;;
17761;SDS011;9005;48.838;10.112;2023-12-07T08:40:31;5.15;;;3.95;;
17761;SDS011;9005;48.838;10.112;2023-12-07T08:42:57;5.10;;;4.60;;
17761;SDS011;9005;48.838;10.112;2023-12-07T08:45:25;4.40;;;4.00;;
17761;SDS011;9005;48.838;10.112;2023-12-07T08:47:51;4.40;;;3.97;;
17761;SDS011;9005;48.838;10.112;2023-12-07T08:50:18;5.20;;;4.45;;
17761;SDS011;9005;48.838;10.112;2023-12-07T08:52:45;5.10;;;4.53;;
17761;SDS011;9005;48.838;10.112;2023-12-07T08:55:12;5.80;;;5.28;;
17761;SDS011;9005;48.838;10.112;2023-12-07T08:57:40;7.50;;;6.80;;
17761;SDS011;9005;48.838;10.112;2023-12-07T09:00:07;8.30;;;7.50;;
17761;SDS011;9005;48.838;10.112;2023-12-07T09:02:37;7.35;;;6.43;;
17761;SDS011;9005;48.838;10.112;2023-12-07T09:05:03;6.70;;;6.00;;
17761;SDS011;9005;48.838;10.112;2023-12-07T09:07:31;6.03;;;5.40;;
17761;SDS011;9005;48.838;10.112;2023-12-07T09:09:57;5.15;;;4.65;;
17761;SDS011;9005;48.838;10.112;2023-12-07T09:12:24;5.97;;;5.15;;
17761;SDS011;9005;48.838;10.112;2023-12-07T09:14:51;4.57;;;4.03;;
17761;SDS011;9005;48.838;10.112;2023-12-07T09:17:17;5.10;;;4.60;;
17761;SDS011;9005;48.838;10.112;2023-12-07T09:19:45;5.97;;;3.95;;
17761;SDS011;9005;48.838;10.112;2023-12-07T09:22:12;4.10;;;3.47;;
17761;SDS011;9005;48.838;10.112;2023-12-07T09:24:41;3.50;;;3.15;;
17761;SDS011;9005;48.838;10.112;2023-12-07T09:27:07;3.53;;;3.22;;
17761;SDS011;9005;48.838;10.112;2023-12-07T09:29:35;3.78;;;3.33;;
17761;SDS011;9005;48.838;10.112;2023-12-07T09:32:02;3.70;;;3.30;;
17761;SDS011;9005;48.838;10.112;2023-12-07T09:34:29;3.83;;;2.75;;
17761;SDS011;9005;48.838;10.112;2023-12-07T09:37:06;3.15;;;2.83;;
17761;SDS011;9005;48.838;10.112;2023-12-07T09:39:33;2.65;;;2.35;;
17761;SDS011;9005;48.838;10.112;2023-12-07T09:42:00;3.13;;;2.33;;
17761;SDS011;9005;48.838;10.112;2023-12-07T09:44:27;4.57;;;2.80;;
17761;SDS011;9005;48.838;10.112;2023-12-07T09:46:54;5.95;;;3.88;;
17761;SDS011;9005;48.838;10.112;2023-12-07T09:49:21;4.72;;;3.58;;
17761;SDS011;9005;48.838;10.112;2023-12-07T09:51:48;5.25;;;3.75;;
17761;SDS011;9005;48.838;10.112;2023-12-07T09:54:18;4.90;;;4.45;;
17761;SDS011;9005;48.838;10.112;2023-12-07T09:56:47;4.50;;;4.10;;
17761;SDS011;9005;48.838;10.112;2023-12-07T09:59:16;5.40;;;3.80;;
17761;SDS011;9005;48.838;10.112;2023-12-07T10:01:43;5.05;;;4.43;;
17761;SDS011;9005;48.838;10.112;2023-12-07T10:04:16;3.97;;;3.58;;
17761;SDS011;9005;48.838;10.112;2023-12-07T10:06:44;5.07;;;3.60;;
17761;SDS011;9005;48.838;10.112;2023-12-07T10:09:12;3.45;;;3.05;;
17761;SDS011;9005;48.838;10.112;2023-12-07T10:11:41;3.40;;;2.60;;
17761;SDS011;9005;48.838;10.112;2023-12-07T10:14:08;4.10;;;3.35;;
17761;SDS011;9005;48.838;10.112;2023-12-07T10:16:35;4.90;;;3.35;;
17761;SDS011;9005;48.838;10.112;2023-12-07T10:19:12;3.92;;;3.28;;
17761;SDS011;9005;48.838;10.112;2023-12-07T10:21:39;4.05;;;3.33;;
17761;SDS011;9005;48.838;10.112;2023-12-07T10:24:06;4.57;;;3.50;;
17761;SDS011;9005;48.838;10.112;2023-12-07T10:26:34;3.80;;;3.35;;
17761;SDS011;9005;48.838;10.112;2023-12-07T10:29:03;4.72;;;3.92;;
17761;SDS011;9005;48.838;10.112;2023-12-07T10:31:30;5.35;;;3.60;;
17761;SDS011;9005;48.838;10.112;2023-12-07T10:33:58;4.05;;;3.25;;
17761;SDS011;9005;48.838;10.112;2023-12-07T10:36:25;4.05;;;3.30;;
17761;SDS011;9005;48.838;10.112;2023-12-07T10:38:52;3.95;;;3.50;;
17761;SDS011;9005;48.838;10.112;2023-12-07T10:41:20;2.85;;;2.55;;
17761;SDS011;9005;48.838;10.112;2023-12-07T10:43:48;3.40;;;3.03;;
17761;SDS011;9005;48.838;10.112;2023-12-07T10:46:19;3.67;;;3.20;;
17761;SDS011;9005;48.838;10.112;2023-12-07T10:48:47;3.40;;;2.72;;
17761;SDS011;9005;48.838;10.112;2023-12-07T10:51:17;3.30;;;3.00;;
17761;SDS011;9005;48.838;10.112;2023-12-07T10:53:50;4.50;;;3.05;;
17761;SDS011;9005;48.838;10.112;2023-12-07T10:56:22;3.90;;;3.08;;
17761;SDS011;9005;48.838;10.112;2023-12-07T10:58:54;4.47;;;3.00;;
17761;SDS011;9005;48.838;10.112;2023-12-07T11:01:24;5.95;;;3.03;;
17761;SDS011;9005;48.838;10.112;2023-12-07T11:03:51;4.03;;;3.33;;
17761;SDS011;9005;48.838;10.112;2023-12-07T11:06:19;3.35;;;3.05;;
17761;SDS011;9005;48.838;10.112;2023-12-07T11:08:46;3.10;;;2.80;;
17761;SDS011;9005;48.838;10.112;2023-12-07T11:11:19;4.10;;;2.92;;
17761;SDS011;9005;48.838;10.112;2023-12-07T11:13:52;3.15;;;2.25;;
17761;SDS011;9005;48.838;10.112;2023-12-07T11:16:29;2.78;;;2.38;;
17761;SDS011;9005;48.838;10.112;2023-12-07T11:18:57;3.22;;;2.92;;
17761;SDS011;9005;48.838;10.112;2023-12-07T11:21:24;2.95;;;2.55;;
17761;SDS011;9005;48.838;10.112;2023-12-07T11:23:52;1.50;;;1.40;;
17761;SDS011;9005;48.838;10.112;2023-12-07T11:26:19;2.60;;;2.15;;
17761;SDS011;9005;48.838;10.112;2023-12-07T11:28:46;3.65;;;3.05;;
17761;SDS011;9005;48.838;10.112;2023-12-07T11:31:13;3.78;;;2.83;;
17761;SDS011;9005;48.838;10.112;2023-12-07T11:33:42;4.45;;;2.80;;
17761;SDS011;9005;48.838;10.112;2023-12-07T11:36:10;2.65;;;2.22;;
17761;SDS011;9005;48.838;10.112;2023-12-07T11:38:37;2.78;;;2.40;;
17761;SDS011;9005;48.838;10.112;2023-12-07T11:41:05;2.53;;;2.22;;
17761;SDS011;9005;48.838;10.112;2023-12-07T11:43:41;2.80;;;2.50;;
17761;SDS011;9005;48.838;10.112;2023-12-07T11:46:11;4.38;;;2.40;;
17761;SDS011;9005;48.838;10.112;2023-12-07T11:48:44;2.40;;;2.17;;
17761;SDS011;9005;48.838;10.112;2023-12-07T11:51:13;3.20;;;2.00;;
17761;SDS011;9005;48.838;10.112;2023-12-07T11:53:39;3.95;;;2.17;;
17761;SDS011;9005;48.838;10.112;2023-12-07T11:56:07;2.40;;;1.67;;
17761;SDS011;9005;48.838;10.112;2023-12-07T11:58:35;3.33;;;2.45;;
17761;SDS011;9005;48.838;10.112;2023-12-07T12:01:03;3.05;;;2.35;;
17761;SDS011;9005;48.838;10.112;2023-12-07T12:03:31;3.47;;;2.58;;
17761;SDS011;9005;48.838;10.112;2023-12-07T12:06:01;1.42;;;1.33;;
17761;SDS011;9005;48.838;10.112;2023-12-07T12:08:30;3.15;;;2.13;;
17761;SDS011;9005;48.838;10.112;2023-12-07T12:10:57;2.85;;;2.10;;
17761;SDS011;9005;48.838;10.112;2023-12-07T12:13:25;3.05;;;2.30;;
17761;SDS011;9005;48.838;10.112;2023-12-07T12:15:54;4.00;;;2.40;;
17761;SDS011;9005;48.838;10.112;2023-12-07T12:18:22;2.42;;;2.10;;
17761;SDS011;9005;48.838;10.112;2023-12-07T12:20:50;2.55;;;2.10;;
17761;SDS011;9005;48.838;10.112;2023-12-07T12:23:18;1.50;;;1.35;;
17761;SDS011;9005;48.838;10.112;2023-12-07T12:25:45;2.22;;;2.03;;
17761;SDS011;9005;48.838;10.112;2023-12-07T12:28:14;2.47;;;1.98;;
17761;SDS011;9005;48.838;10.112;2023-12-07T12:30:42;2.22;;;1.80;;
17761;SDS011;9005;48.838;10.112;2023-12-07T12:33:09;2.38;;;1.83;;
17761;SDS011;9005;48.838;10.112;2023-12-07T12:35:36;2.25;;;2.08;;
17761;SDS011;9005;48.838;10.112;2023-12-07T12:38:03;2.50;;;2.05;;
17761;SDS011;9005;48.838;10.112;2023-12-07T12:40:36;2.33;;;2.13;;
17761;SDS011;9005;48.838;10.112;2023-12-07T12:43:04;1.55;;;1.45;;
17761;SDS011;9005;48.838;10.112;2023-12-07T12:45:31;2.40;;;2.20;;
17761;SDS011;9005;48.838;10.112;2023-12-07T12:47:59;2.70;;;2.40;;
17761;SDS011;9005;48.838;10.112;2023-12-07T12:50:32;4.22;;;2.60;;
17761;SDS011;9005;48.838;10.112;2023-12-07T12:53:02;3.55;;;2.50;;
17761;SDS011;9005;48.838;10.112;2023-12-07T12:55:30;3.97;;;2.40;;
17761;SDS011;9005;48.838;10.112;2023-12-07T12:57:58;3.92;;;2.50;;
17761;SDS011;9005;48.838;10.112;2023-12-07T13:00:25;2.90;;;2.70;;
17761;SDS011;9005;48.838;10.112;2023-12-07T13:02:52;2.60;;;2.40;;
17761;SDS011;9005;48.838;10.112;2023-12-07T13:05:19;2.75;;;2.55;;
17761;SDS011;9005;48.838;10.112;2023-12-07T13:07:46;3.15;;;2.70;;
17761;SDS011;9005;48.838;10.112;2023-12-07T13:10:13;2.97;;;2.50;;
17761;SDS011;9005;48.838;10.112;2023-12-07T13:12:40;3.88;;;2.53;;
17761;SDS011;9005;48.838;10.112;2023-12-07T13:15:09;2.47;;;2.22;;
17761;SDS011;9005;48.838;10.112;2023-12-07T13:17:37;3.00;;;2.50;;
17761;SDS011;9005;48.838;10.112;2023-12-07T13:20:05;2.83;;;2.35;;
17761;SDS011;9005;48.838;10.112;2023-12-07T13:22:33;2.55;;;2.35;;
17761;SDS011;9005;48.838;10.112;2023-12-07T13:25:00;2.67;;;2.47;;
17761;SDS011;9005;48.838;10.112;2023-12-07T13:27:27;2.47;;;2.28;;
17761;SDS011;9005;48.838;10.112;2023-12-07T13:29:54;3.17;;;2.40;;
17761;SDS011;9005;48.838;10.112;2023-12-07T13:32:22;2.53;;;2.33;;
17761;SDS011;9005;48.838;10.112;2023-12-07T13:34:49;2.75;;;2.08;;
17761;SDS011;9005;48.838;10.112;2023-12-07T13:37:17;2.15;;;1.95;;
17761;SDS011;9005;48.838;10.112;2023-12-07T13:39:45;2.33;;;2.00;;
17761;SDS011;9005;48.838;10.112;2023-12-07T13:42:17;2.17;;;1.98;;
17761;SDS011;9005;48.838;10.112;2023-12-07T13:44:44;3.88;;;2.28;;
17761;SDS011;9005;48.838;10.112;2023-12-07T13:47:11;2.92;;;2.50;;
17761;SDS011;9005;48.838;10.112;2023-12-07T13:49:40;3.35;;;3.00;;
17761;SDS011;9005;48.838;10.112;2023-12-07T13:52:07;2.58;;;2.35;;
17761;SDS011;9005;48.838;10.112;2023-12-07T13:54:34;3.83;;;2.95;;
17761;SDS011;9005;48.838;10.112;2023-12-07T13:57:01;3.28;;;2.55;;
17761;SDS011;9005;48.838;10.112;2023-12-07T13:59:28;4.57;;;3.42;;
17761;SDS011;9005;48.838;10.112;2023-12-07T14:01:55;2.97;;;2.70;;
17761;SDS011;9005;48.838;10.112;2023-12-07T14:04:21;2.67;;;2.47;;
17761;SDS011;9005;48.838;10.112;2023-12-07T14:06:50;2.90;;;2.70;;
17761;SDS011;9005;48.838;10.112;2023-12-07T14:09:17;3.05;;;2.75;;
17761;SDS011;9005;48.838;10.112;2023-12-07T14:11:44;3.05;;;2.72;;
17761;SDS011;9005;48.838;10.112;2023-12-07T14:14:11;3.25;;;2.95;;
17761;SDS011;9005;48.838;10.112;2023-12-07T14:16:38;4.05;;;3.65;;
17761;SDS011;9005;48.838;10.112;2023-12-07T14:19:05;3.53;;;3.08;;
17761;SDS011;9005;48.838;10.112;2023-12-07T14:21:32;4.55;;;4.15;;
17761;SDS011;9005;48.838;10.112;2023-12-07T14:24:00;4.57;;;3.20;;
17761;SDS011;9005;48.838;10.112;2023-12-07T14:26:27;5.25;;;4.32;;
17761;SDS011;9005;48.838;10.112;2023-12-07T14:28:54;5.00;;;3.80;;
17761;SDS011;9005;48.838;10.112;2023-12-07T14:31:21;5.50;;;4.85;;
17761;SDS011;9005;48.838;10.112;2023-12-07T14:33:47;4.07;;;3.67;;
17761;SDS011;9005;48.838;10.112;2023-12-07T14:36:15;4.03;;;3.47;;
17761;SDS011;9005;48.838;10.112;2023-12-07T14:38:43;6.47;;;4.22;;
17761;SDS011;9005;48.838;10.112;2023-12-07T14:41:11;4.80;;;4.40;;
17761;SDS011;9005;48.838;10.112;2023-12-07T14:43:38;3.95;;;3.55;;
17761;SDS011;9005;48.838;10.112;2023-12-07T14:46:05;3.47;;;3.00;;
17761;SDS011;9005;48.838;10.112;2023-12-07T14:48:33;5.53;;;3.88;;
17761;SDS011;9005;48.838;10.112;2023-12-07T14:51:00;2.83;;;2.53;;